Time;durP1;ratioP1;P1;durP2;ratioP2;P2;SDS_P1;SDS_P2;PMS_P1;PMS_P2;Temp;Humidity;BMP_temperature;BMP_pressure;BME280_temperature;BME280_humidity;BME280_pressure;Samples;Min_cycle;Max_cycle;Signal;HPM_P1;HPM_P2
2022/06/25 00:01:23;;;;;;;13.38;10.15;;;;;;;-148.88;90.73;74451.06;5035144;28;20116;-74
2022/06/25 00:03:49;;;;;;;14.85;11.02;;;;;;;-148.88;90.92;74453.09;5034872;28;20056;-74
2022/06/25 00:06:15;;;;;;;13.68;11.63;;;;;;;-148.88;91.30;74449.03;5050130;28;20030;-75
2022/06/25 00:08:41;;;;;;;14.60;11.77;;;;;;;-148.88;90.76;74465.28;5035067;28;20503;-74
2022/06/25 00:11:07;;;;;;;17.00;12.35;;;;;;;-148.88;91.56;74469.34;5034771;28;20091;-75
2022/06/25 00:13:33;;;;;;;16.02;11.68;;;;;;;-148.88;91.22;74469.34;5034936;28;20017;-74
2022/06/25 00:16:00;;;;;;;14.93;10.93;;;;;;;-148.88;91.07;74481.53;5036062;28;20025;-74
2022/06/25 00:18:25;;;;;;;14.38;11.35;;;;;;;-148.88;91.08;74483.56;5035260;28;20033;-73
2022/06/25 00:20:51;;;;;;;13.35;10.85;;;;;;;-148.88;90.96;74489.66;5035113;28;20040;-73
2022/06/25 00:23:17;;;;;;;13.90;10.82;;;;;;;-148.88;91.09;74489.66;5035165;28;20032;-74
2022/06/25 00:25:43;;;;;;;15.48;11.27;;;;;;;-148.88;91.17;74493.72;5035385;28;20415;-75
2022/06/25 00:28:08;;;;;;;16.05;12.13;;;;;;;-148.88;92.00;74507.91;5034943;28;20040;-75
2022/06/25 00:30:34;;;;;;;16.05;11.85;;;;;;;-148.88;92.13;74497.78;5034949;28;20471;-74
2022/06/25 00:32:59;;;;;;;15.20;11.90;;;;;;;-148.88;92.46;74514.00;5034814;28;20033;-74
2022/06/25 00:35:25;;;;;;;13.88;10.98;;;;;;;-148.88;92.03;74514.00;5034863;28;20071;-74
2022/06/25 00:37:51;;;;;;;15.73;12.13;;;;;;;-148.88;92.55;74534.31;5034828;28;20026;-74
2022/06/25 00:40:26;;;;;;;14.15;11.25;;;;;;;-148.88;92.42;74538.38;5034785;28;20106;-75
2022/06/25 00:42:51;;;;;;;16.80;11.70;;;;;;;-148.88;92.15;74546.50;5034631;28;20032;-75
2022/06/25 00:45:17;;;;;;;13.93;10.93;;;;;;;-148.88;91.73;74548.53;5034527;28;20025;-75
2022/06/25 00:47:42;;;;;;;14.20;11.57;;;;;;;-148.88;92.36;74558.69;5050016;28;20399;-75
2022/06/25 00:50:17;;;;;;;16.27;11.75;;;;;;;-148.88;92.34;74574.94;5049943;28;20074;-75
2022/06/25 00:52:50;;;;;;;21.25;11.68;;;;;;;-148.88;92.92;74587.13;5034535;28;20096;-75
2022/06/25 00:55:19;;;;;;;13.68;10.95;;;;;;;-148.88;93.22;74591.19;5034778;28;20505;-75
2022/06/25 00:57:46;;;;;;;12.75;10.20;;;;;;;-148.88;92.97;74599.28;5034391;28;20372;-74
2022/06/25 01:00:17;;;;;;;16.83;10.65;;;;;;;-148.88;93.67;74605.38;5034457;28;20032;-74
2022/06/25 01:02:44;;;;;;;11.40;8.60;;;;;;;-148.88;93.25;74603.34;5033805;28;20037;-75
2022/06/25 01:05:12;;;;;;;13.27;9.93;;;;;;;-148.88;93.91;74615.53;5034435;28;20044;-75
2022/06/25 01:07:39;;;;;;;13.48;9.30;;;;;;;-148.88;93.85;74619.59;5034488;28;20045;-74
2022/06/25 01:10:16;;;;;;;14.77;9.55;;;;;;;-148.88;93.82;74623.66;5034200;28;20032;-75
2022/06/25 01:12:42;;;;;;;11.45;9.32;;;;;;;-148.88;93.85;74627.72;5032865;28;20449;-75
2022/06/25 01:15:14;;;;;;;16.42;9.10;;;;;;;-148.88;94.44;74643.97;5034107;28;20017;-75
2022/06/25 01:17:44;;;;;;;13.98;8.95;;;;;;;-148.88;93.71;74646.00;5034418;28;20103;-75
2022/06/25 01:20:16;;;;;;;12.48;9.57;;;;;;;-148.88;93.77;74660.22;5034030;28;20021;-75
2022/06/25 01:22:42;;;;;;;15.20;10.48;;;;;;;-148.88;94.93;74666.31;5033945;28;20113;-75
2022/06/25 01:25:09;;;;;;;11.88;9.57;;;;;;;-148.88;94.98;74672.41;5034430;28;20120;-74
2022/06/25 01:27:34;;;;;;;11.68;9.18;;;;;;;-148.88;94.67;74680.53;5010689;23;20042;-77
2022/06/25 01:30:00;;;;;;;14.52;10.48;;;;;;;-148.88;95.21;74682.56;4994273;28;20495;-76
2022/06/25 01:32:25;;;;;;;11.50;9.27;;;;;;;-148.88;95.59;74684.59;4994536;28;20113;-76
2022/06/25 01:34:50;;;;;;;11.95;9.45;;;;;;;-148.88;95.72;74686.63;4977023;28;20113;-77
2022/06/25 01:37:16;;;;;;;12.10;9.32;;;;;;;-148.88;96.28;74684.59;4994531;28;20117;-77
2022/06/25 01:39:41;;;;;;;13.43;9.40;;;;;;;-148.88;96.20;74680.53;4994321;28;20030;-77
2022/06/25 01:42:58;;;;;;;10.02;8.88;;;;;;;-148.88;96.20;74686.63;4994328;28;20368;-77
2022/06/25 01:44:51;;;;;;;11.63;9.02;;;;;;;-148.88;96.51;74686.63;4993964;28;20042;-77
2022/06/25 01:47:17;;;;;;;12.45;8.82;;;;;;;-148.88;96.91;74692.72;4994351;28;20414;-76
2022/06/25 01:49:42;;;;;;;11.55;8.60;;;;;;;-148.88;97.16;74686.63;4976602;28;20116;-76
2022/06/25 01:52:07;;;;;;;10.90;8.90;;;;;;;-148.88;97.27;74696.78;4994011;28;20022;-76
2022/06/25 01:54:33;;;;;;;10.30;9.00;;;;;;;-148.88;97.30;74694.75;4993947;28;20026;-76
2022/06/25 01:56:58;;;;;;;10.18;8.20;;;;;;;-148.88;96.98;74700.84;4976608;28;20037;-77
2022/06/25 01:59:23;;;;;;;10.05;8.48;;;;;;;-148.88;96.85;74702.84;4993916;28;20052;-77
2022/06/25 02:01:48;;;;;;;9.43;7.78;;;;;;;-148.88;96.83;74708.94;4993929;28;20026;-77
2022/06/25 02:04:14;;;;;;;9.95;8.48;;;;;;;-148.88;96.87;74721.13;4993782;28;20089;-77
2022/06/25 02:06:39;;;;;;;12.25;8.05;;;;;;;-148.88;96.66;74723.16;4994245;28;20038;-76
2022/06/25 02:09:04;;;;;;;10.43;8.80;;;;;;;-148.88;96.51;74725.19;4993866;28;20026;-76
2022/06/25 02:11:29;;;;;;;11.13;8.35;;;;;;;-148.88;97.11;74725.19;4993756;28;20026;-77
2022/06/25 02:13:55;;;;;;;16.52;8.40;;;;;;;-148.88;96.91;74729.25;4992595;28;20034;-77
2022/06/25 02:16:20;;;;;;;13.45;8.30;;;;;;;-148.88;97.15;74733.31;4993420;28;20019;-77
2022/06/25 02:18:45;;;;;;;10.68;8.07;;;;;;;-148.88;97.19;74735.34;4993502;28;20450;-77
2022/06/25 02:21:11;;;;;;;8.48;7.15;;;;;;;-148.88;97.41;74739.41;4993336;28;20037;-77
2022/06/25 02:23:36;;;;;;;9.25;7.00;;;;;;;-148.88;97.89;74747.53;4993281;28;20073;-77
2022/06/25 02:26:02;;;;;;;8.30;6.75;;;;;;;-148.88;98.15;74745.50;4993092;28;20474;-77
2022/06/25 02:28:28;;;;;;;7.63;6.80;;;;;;;-148.88;98.40;74745.50;4993392;28;20057;-77
2022/06/25 02:30:53;;;;;;;9.07;6.85;;;;;;;-148.88;98.48;74753.63;4993143;28;20026;-77
2022/06/25 02:33:19;;;;;;;11.27;7.22;;;;;;;-148.88;98.65;74761.75;4993259;28;20026;-77
2022/06/25 02:35:44;;;;;;;9.52;6.25;;;;;;;-148.88;98.84;74757.69;4993194;28;20065;-77
2022/06/25 02:38:11;;;;;;;9.98;6.57;;;;;;;-148.88;98.72;74761.75;4975433;28;20038;-77
2022/06/25 02:40:36;;;;;;;7.65;6.07;;;;;;;-148.88;98.70;74767.84;4993377;28;20073;-77
2022/06/25 02:43:01;;;;;;;8.38;6.15;;;;;;;-148.88;98.49;74767.84;4975523;28;20058;-77
2022/06/25 02:45:28;;;;;;;5.97;5.25;;;;;;;-148.88;98.66;74767.84;4975594;28;20029;-77
2022/06/25 02:47:54;;;;;;;7.95;5.72;;;;;;;-148.88;98.49;74763.78;4975520;28;20025;-77
2022/06/25 02:50:20;;;;;;;8.98;5.68;;;;;;;-148.88;98.02;74769.88;4992834;28;20030;-77
2022/06/25 02:52:45;;;;;;;9.10;5.50;;;;;;;-148.88;98.00;74773.94;4992829;28;20209;-77
2022/06/25 02:55:11;;;;;;;8.88;5.20;;;;;;;-148.88;97.71;74773.94;4992992;28;20022;-77
2022/06/25 03:00:20;;;;;;;8.43;4.88;;;;;;;-148.88;97.20;74786.13;4992845;28;20029;-77
2022/06/25 03:02:45;;;;;;;7.97;4.75;;;;;;;-148.88;97.36;74792.22;4993218;28;20030;-77
2022/06/25 03:05:11;;;;;;;6.03;5.25;;;;;;;-148.88;98.17;74802.38;4992764;28;20544;-77
2022/06/25 03:07:36;;;;;;;9.07;5.45;;;;;;;-148.88;98.12;74812.53;4992852;28;20372;-77
2022/06/25 03:10:02;;;;;;;8.55;6.72;;;;;;;-148.88;98.92;74822.66;4992675;28;20458;-77
2022/06/25 03:12:27;;;;;;;7.35;6.25;;;;;;;-148.88;98.90;74834.84;4992890;28;20026;-77
2022/06/25 03:14:52;;;;;;;8.45;6.65;;;;;;;-148.88;98.84;74838.91;4992659;28;20102;-77
2022/06/25 03:17:18;;;;;;;8.48;6.15;;;;;;;-148.88;98.79;74842.97;4992700;28;20391;-77
2022/06/25 03:19:43;;;;;;;9.48;5.97;;;;;;;-148.88;98.53;74842.97;4992841;28;20591;-77
2022/06/25 03:22:08;;;;;;;10.48;6.10;;;;;;;-148.88;98.36;74847.03;4992789;28;20365;-77
2022/06/25 03:24:33;;;;;;;9.68;5.40;;;;;;;-148.88;98.79;74851.09;4993178;28;20030;-77
2022/06/25 03:26:59;;;;;;;9.55;5.38;;;;;;;-148.88;99.03;74857.19;4995879;28;20435;-77
2022/06/25 03:29:24;;;;;;;11.02;5.55;;;;;;;-148.88;99.27;74855.16;4978420;28;20117;-77
2022/06/25 03:31:49;;;;;;;6.93;5.13;;;;;;;-148.88;99.23;74863.28;4978684;28;20019;-77
2022/06/25 03:34:14;;;;;;;7.85;5.47;;;;;;;-148.88;99.71;74865.31;4995985;28;20345;-77
2022/06/25 03:36:40;;;;;;;10.40;5.68;;;;;;;-148.88;99.92;74869.38;4996213;28;20022;-77
2022/06/25 03:39:05;;;;;;;8.52;5.63;;;;;;;-148.88;100.00;74871.41;4995737;28;20018;-77
2022/06/25 03:41:35;;;;;;;6.03;4.75;;;;;;;-148.88;100.00;74875.47;4995858;28;20109;-77
2022/06/25 03:44:11;;;;;;;8.63;4.70;;;;;;;-148.88;99.62;74871.41;4996234;28;20464;-77
2022/06/25 03:46:38;;;;;;;7.07;4.20;;;;;;;-148.88;99.32;74879.53;4995790;28;20049;-77
2022/06/25 03:49:04;;;;;;;6.45;4.18;;;;;;;-148.88;99.36;74879.53;4995717;28;20116;-77
2022/06/25 03:51:31;;;;;;;8.93;4.50;;;;;;;-148.88;98.92;74881.56;4978273;28;20504;-77
2022/06/25 03:53:56;;;;;;;7.85;4.07;;;;;;;-148.88;99.55;74883.59;4995670;28;20018;-77
2022/06/25 03:56:22;;;;;;;9.18;4.03;;;;;;;-148.88;99.18;74879.53;4995859;28;20031;-77
2022/06/25 03:58:47;;;;;;;14.50;4.97;;;;;;;-148.88;99.20;74883.59;4995619;28;20029;-77
2022/06/25 04:01:13;;;;;;;8.80;3.70;;;;;;;-148.88;99.79;74883.59;4995847;28;20057;-77
2022/06/25 04:03:39;;;;;;;10.35;4.20;;;;;;;-148.88;99.45;74879.53;4995759;28;20487;-77
2022/06/25 04:06:05;;;;;;;8.98;4.20;;;;;;;-148.88;99.84;74885.63;4995519;28;20030;-77
2022/06/25 04:08:30;;;;;;;8.38;4.15;;;;;;;-148.88;99.86;74887.66;4995312;28;20084;-77
2022/06/25 04:10:55;;;;;;;8.07;4.43;;;;;;;-148.88;99.71;74879.53;4995444;28;20042;-76
2022/06/25 04:13:21;;;;;;;13.27;4.63;;;;;;;-148.88;99.45;74879.53;4995604;28;20057;-76
2022/06/25 04:15:46;;;;;;;9.27;3.92;;;;;;;-148.88;99.45;74873.44;4977799;28;20103;-76
2022/06/25 04:18:12;;;;;;;7.65;3.70;;;;;;;-148.88;99.74;74877.50;4995118;28;20055;-77
2022/06/25 04:20:37;;;;;;;8.63;3.53;;;;;;;-148.88;99.30;74875.47;4977587;28;20042;-76
2022/06/25 04:23:03;;;;;;;6.82;3.88;;;;;;;-148.88;99.67;74875.47;4995044;28;20396;-77
2022/06/25 04:25:28;;;;;;;7.85;3.80;;;;;;;-148.88;99.74;74871.41;4994899;28;20033;-76
2022/06/25 04:30:37;;;;;;;6.30;3.53;;;;;;;-148.88;99.91;74865.31;4995437;28;20080;-77
2022/06/25 04:33:03;;;;;;;9.10;4.15;;;;;;;-148.88;99.75;74861.25;4977323;28;20034;-76
2022/06/25 04:35:29;;;;;;;7.03;3.85;;;;;;;-148.88;100.00;74855.16;4994852;28;20028;-77
2022/06/25 04:37:54;;;;;;;6.30;4.30;;;;;;;-148.88;100.00;74863.28;4994212;28;20022;-77
2022/06/25 04:40:19;;;;;;;6.53;4.15;;;;;;;-148.88;99.86;74855.16;4994572;28;20109;-77
2022/06/25 04:42:46;;;;;;;7.47;3.90;;;;;;;-148.88;99.62;74838.91;4994902;28;20093;-77
2022/06/25 04:45:12;;;;;;;7.50;3.75;;;;;;;-148.88;99.86;74847.03;4994535;28;20029;-76
2022/06/25 04:47:38;;;;;;;7.38;4.10;;;;;;;-148.88;99.87;74838.91;4994897;28;20026;-76
2022/06/25 04:50:04;;;;;;;6.25;3.50;;;;;;;-148.88;99.85;74834.84;4994709;28;20080;-76
2022/06/25 04:52:29;;;;;;;7.72;3.90;;;;;;;-148.88;99.18;74830.78;4994696;28;20125;-77
2022/06/25 04:54:55;;;;;;;4.38;3.45;;;;;;;-148.88;98.94;74822.66;4977039;28;20105;-77
2022/06/25 04:57:20;;;;;;;5.28;3.53;;;;;;;-148.88;99.01;74820.63;4994596;28;20368;-77
2022/06/25 04:59:45;;;;;;;7.90;3.63;;;;;;;-148.88;99.21;74818.59;4994608;28;20032;-77
2022/06/25 05:02:11;;;;;;;5.75;3.90;;;;;;;-148.88;99.02;74820.63;4994847;28;20427;-76
2022/06/25 05:04:36;;;;;;;6.30;3.70;;;;;;;-148.88;98.96;74802.38;4994284;28;20027;-76
2022/06/25 05:07:01;;;;;;;6.85;3.33;;;;;;;-148.88;99.00;74806.44;4994618;28;20034;-76
2022/06/25 05:09:27;;;;;;;5.68;4.00;;;;;;;-148.88;98.72;74798.31;4976842;28;20045;-76
2022/06/25 05:11:52;;;;;;;8.07;3.72;;;;;;;-148.88;98.38;74798.31;4994636;28;20539;-76
2022/06/25 05:14:18;;;;;;;6.20;3.92;;;;;;;-148.88;98.69;74794.25;4994216;28;20062;-76
2022/06/25 05:16:45;;;;;;;6.13;3.83;;;;;;;-148.88;97.77;74786.13;4994144;28;20484;-76
2022/06/25 05:19:11;;;;;;;5.88;3.85;;;;;;;-148.88;97.35;74784.09;4994104;28;20415;-76
2022/06/25 05:21:36;;;;;;;5.72;3.50;;;;;;;-148.88;96.23;74778.00;4994737;28;20471;-77
2022/06/25 05:24:01;;;;;;;7.53;3.47;;;;;;;-148.88;96.06;74782.06;4977002;28;20114;-77
2022/06/25 05:26:27;;;;;;;6.55;3.53;;;;;;;-148.88;96.43;74769.88;4976575;28;20484;-77
2022/06/25 05:28:52;;;;;;;6.32;3.30;;;;;;;-148.88;96.01;74763.78;4994487;28;20363;-77
2022/06/25 05:31:18;;;;;;;5.10;3.50;;;;;;;-148.88;95.67;74761.75;4977050;28;20556;-77
2022/06/25 05:33:43;;;;;;;5.60;3.25;;;;;;;-148.88;95.60;74745.50;4978981;28;20030;-78
2022/06/25 05:36:08;;;;;;;6.47;3.28;;;;;;;-148.88;93.87;74731.28;4999606;28;20109;-80
2022/06/25 05:38:34;;;;;;;5.93;3.10;;;;;;;-148.88;92.52;74725.19;4980639;28;20093;-79
2022/06/25 05:40:59;;;;;;;8.57;3.25;;;;;;;-148.88;92.38;74721.13;4997233;28;20109;-78
2022/06/25 05:43:24;;;;;;;6.53;3.20;;;;;;;-148.88;92.12;74713.00;4976602;28;20033;-77
2022/06/25 05:45:49;;;;;;;5.57;3.45;;;;;;;-148.88;90.29;74717.06;4995777;28;20034;-78
2022/06/25 05:48:15;;;;;;;5.55;3.13;;;;;;;-148.88;89.74;74702.84;4998196;28;20372;-78
2022/06/25 05:50:40;;;;;;;6.90;3.50;;;;;;;-148.88;90.65;74702.84;4998311;28;20022;-78
2022/06/25 05:53:05;;;;;;;4.68;3.10;;;;;;;-148.88;91.21;74698.78;4997866;28;20037;-78
2022/06/25 05:55:31;;;;;;;7.05;3.33;;;;;;;-148.88;90.17;74700.84;4997340;28;20510;-79
2022/06/25 05:57:58;;;;;;;4.80;3.22;;;;;;;-148.88;88.96;74696.78;4980567;28;20033;-78
2022/06/25 06:00:24;;;;;;;4.85;3.15;;;;;;;-148.88;87.45;74692.72;4998724;28;20022;-78
2022/06/25 06:02:50;;;;;;;10.63;3.22;;;;;;;-148.88;87.53;74684.59;4998944;28;20053;-78
2022/06/25 06:05:15;;;;;;;10.10;3.30;;;;;;;-148.88;87.99;74682.56;4981125;28;20030;-78
2022/06/25 06:07:41;;;;;;;5.15;2.95;;;;;;;-148.88;88.74;74674.44;4993899;28;20089;-77
2022/06/25 06:10:07;;;;;;;5.35;2.90;;;;;;;-148.88;88.60;74672.41;4993321;28;20065;-77
2022/06/25 06:12:32;;;;;;;6.72;3.78;;;;;;;-148.88;87.23;74664.28;4993551;28;20034;-77
2022/06/25 06:14:58;;;;;;;5.63;3.15;;;;;;;-148.88;86.93;74660.22;4993665;28;20076;-77
2022/06/25 06:17:23;;;;;;;5.32;3.45;;;;;;;-148.88;85.88;74660.22;4993758;28;20026;-77
2022/06/25 06:19:48;;;;;;;5.68;3.50;;;;;;;-148.88;87.72;74641.94;4994209;28;20027;-77
2022/06/25 06:22:13;;;;;;;5.50;3.53;;;;;;;-148.88;87.10;74650.06;4993690;28;20391;-77
2022/06/25 06:24:39;;;;;;;7.47;3.47;;;;;;;-148.88;87.13;74635.84;4993611;28;20176;-77
2022/06/25 06:27:04;;;;;;;6.38;3.42;;;;;;;-148.88;86.16;74631.78;4993473;28;20045;-77
2022/06/25 06:29:30;;;;;;;6.70;3.35;;;;;;;-148.88;85.05;74635.84;4993572;28;20033;-77
2022/06/25 06:31:55;;;;;;;8.88;3.42;;;;;;;-148.88;85.40;74627.72;4993636;28;20034;-77
2022/06/25 06:34:21;;;;;;;7.90;3.42;;;;;;;-148.88;85.63;74633.81;4993692;28;20033;-77
2022/06/25 06:36:47;;;;;;;6.57;3.22;;;;;;;-148.88;86.56;74631.78;4976138;28;20019;-77
2022/06/25 06:39:12;;;;;;;6.47;3.80;;;;;;;-148.88;84.77;74619.59;4993443;28;20028;-77
2022/06/25 06:41:38;;;;;;;5.63;3.50;;;;;;;-148.88;85.42;74607.41;4993569;28;20033;-77
2022/06/25 06:44:03;;;;;;;7.78;3.55;;;;;;;-148.88;84.17;74605.38;4976052;28;20073;-77
2022/06/25 06:46:29;;;;;;;6.60;3.33;;;;;;;-148.88;81.10;74607.41;4993508;28;20056;-77
2022/06/25 06:48:54;;;;;;;5.47;3.10;;;;;;;-148.88;81.90;74603.34;4993388;28;20050;-77
2022/06/25 06:51:19;;;;;;;6.90;3.08;;;;;;;-148.88;81.93;74603.34;4993650;28;20479;-77
2022/06/25 06:53:45;;;;;;;4.97;2.80;;;;;;;-148.88;80.42;74595.25;4977203;28;20026;-78
2022/06/25 06:56:10;;;;;;;6.57;3.20;;;;;;;-148.88;79.92;74591.19;4994046;28;20030;-77
2022/06/25 06:58:36;;;;;;;5.32;3.08;;;;;;;-148.88;81.47;74591.19;4993776;28;20026;-78
2022/06/25 07:01:02;;;;;;;8.13;3.60;;;;;;;-148.88;80.33;74585.09;4996354;28;20026;-77
2022/06/25 07:03:28;;;;;;;7.00;2.90;;;;;;;-148.88;79.98;74570.88;4997146;28;20483;-77
2022/06/25 07:05:53;;;;;;;6.45;2.90;;;;;;;-148.88;79.85;74568.84;4996991;28;20052;-77
2022/06/25 07:08:19;;;;;;;6.10;2.67;;;;;;;-148.88;79.37;74560.72;4997110;28;20477;-78
2022/06/25 07:10:44;;;;;;;5.47;3.22;;;;;;;-148.88;78.72;74568.84;4997214;28;20018;-77
2022/06/25 07:13:09;;;;;;;6.78;2.90;;;;;;;-148.88;77.71;74568.84;4997406;28;20128;-77
2022/06/25 07:15:35;;;;;;;5.53;3.10;;;;;;;-148.88;78.24;74558.69;4996809;28;20023;-77
2022/06/25 07:18:01;;;;;;;4.68;2.55;;;;;;;-148.88;78.46;74548.53;4996852;28;20026;-77
2022/06/25 07:20:26;;;;;;;5.18;2.90;;;;;;;-148.88;75.16;74550.56;4997072;28;20026;-78
2022/06/25 07:22:52;;;;;;;4.78;2.83;;;;;;;-148.88;76.07;74538.38;4979278;28;20018;-77
2022/06/25 07:25:17;;;;;;;6.55;2.60;;;;;;;-148.88;75.21;74526.19;4996687;28;20122;-77
2022/06/25 07:27:43;;;;;;;4.93;2.50;;;;;;;-148.88;75.58;74522.13;4999673;23;20416;-85
2022/06/25 07:30:12;;;;;;;4.93;2.30;;;;;;;-148.88;74.08;74509.94;4996023;28;20073;-84
2022/06/25 07:32:37;;;;;;;4.00;2.30;;;;;;;-148.88;70.88;74497.78;4979050;28;20084;-83
2022/06/25 07:35:03;;;;;;;8.45;2.38;;;;;;;-148.88;70.59;74483.56;4996067;28;20030;-83
2022/06/25 07:37:29;;;;;;;3.78;1.92;;;;;;;-148.88;70.79;74485.59;4978877;28;20093;-83
2022/06/25 07:39:54;;;;;;;3.72;1.70;;;;;;;-148.88;70.31;74465.28;4994918;28;20449;-85
2022/06/25 07:42:23;;;;;;;4.43;2.10;;;;;;;-148.88;68.97;74469.34;4996041;28;20084;-83
2022/06/25 07:44:48;;;;;;;3.38;1.77;;;;;;;-148.88;69.20;74459.19;4978134;28;20106;-85
2022/06/25 07:47:13;;;;;;;3.10;1.60;;;;;;;-148.88;67.60;74457.16;4980102;28;20088;-84
2022/06/25 07:52:23;;;;;;;3.55;1.60;;;;;;;-148.88;67.36;74436.84;4996064;28;20404;-84
2022/06/25 07:54:48;;;;;;;2.55;1.80;;;;;;;-148.88;66.42;74428.72;4978214;28;20468;-84
2022/06/25 07:57:13;;;;;;;4.70;1.92;;;;;;;-148.88;65.96;74428.72;4978032;28;20023;-83
2022/06/25 07:59:39;;;;;;;6.97;1.45;;;;;;;-148.88;66.66;74422.63;4978271;28;20026;-83
2022/06/25 08:02:04;;;;;;;5.05;1.50;;;;;;;-148.88;63.72;74420.59;4996080;28;20026;-84
2022/06/25 08:04:30;;;;;;;7.10;2.05;;;;;;;-148.88;65.56;74404.38;4995967;28;20449;-83
2022/06/25 08:06:56;;;;;;;5.53;1.85;;;;;;;-148.88;67.92;74394.22;4978178;28;20038;-84
2022/06/25 08:09:21;;;;;;;7.43;1.88;;;;;;;-148.88;65.37;74394.22;4995916;28;20018;-82
2022/06/25 08:11:47;;;;;;;3.47;1.90;;;;;;;-148.88;66.11;74398.28;5007998;28;20041;-81
2022/06/25 08:14:12;;;;;;;4.10;1.77;;;;;;;-148.88;67.59;74384.06;5012956;28;20029;-84
2022/06/25 08:16:38;;;;;;;3.83;1.75;;;;;;;-148.88;67.71;74353.59;5010013;28;20094;-83
2022/06/25 08:19:03;;;;;;;2.90;1.42;;;;;;;-148.88;62.87;74347.50;4997557;28;20030;-82
2022/06/25 08:21:29;;;;;;;4.30;1.42;;;;;;;-148.88;62.40;74343.44;5000365;28;20026;-82
2022/06/25 08:23:54;;;;;;;4.43;1.63;;;;;;;-148.88;61.98;74341.41;4981605;28;20396;-82
2022/06/25 08:26:26;;;;;;;2.78;1.50;;;;;;;-148.88;62.34;74347.50;4979369;28;20413;-83
2022/06/25 08:28:51;;;;;;;5.47;1.90;;;;;;;-148.88;63.58;74337.34;4977917;28;20041;-83
2022/06/25 08:31:19;;;;;;;2.85;1.45;;;;;;;-148.88;62.98;74327.19;4978747;28;20026;-85
2022/06/25 08:33:45;;;;;;;3.88;1.67;;;;;;;-148.88;62.36;74325.19;4977946;28;20026;-83
2022/06/25 08:36:10;;;;;;;4.03;1.75;;;;;;;-148.88;63.68;74306.91;4977428;28;20038;-83
2022/06/25 08:38:36;;;;;;;2.40;1.38;;;;;;;-148.88;63.70;74306.91;4977978;28;20499;-84
2022/06/25 08:41:02;;;;;;;3.88;1.77;;;;;;;-148.88;62.86;74278.47;4995091;28;20058;-82
2022/06/25 08:43:29;;;;;;;4.68;1.52;;;;;;;-148.88;60.14;74292.69;4994660;28;20023;-84
2022/06/25 08:45:55;;;;;;;3.08;1.52;;;;;;;-148.88;59.57;74266.28;4994663;28;20437;-82
2022/06/25 08:48:30;;;;;;;2.45;1.60;;;;;;;-148.88;58.47;74264.25;4961805;28;20034;-83
2022/06/25 08:50:56;;;;;;;3.15;1.60;;;;;;;-148.88;58.39;74274.41;4995293;28;20462;-83
2022/06/25 08:53:22;;;;;;;6.55;1.70;;;;;;;-148.88;59.26;74274.41;4995013;28;20030;-82
2022/06/25 08:55:48;;;;;;;3.42;1.48;;;;;;;-148.88;60.94;74248.00;4994778;28;20022;-82
2022/06/25 08:58:14;;;;;;;4.97;1.80;;;;;;;-148.88;60.59;74225.69;4994678;28;20492;-82
2022/06/25 09:00:42;;;;;;;6.03;1.73;;;;;;;-148.88;60.95;74225.69;4993567;28;20504;-83
2022/06/25 09:03:11;;;;;;;3.38;1.45;;;;;;;-148.88;57.33;74209.44;4993421;28;20131;-83
2022/06/25 09:05:40;;;;;;;2.97;1.30;;;;;;;-148.88;58.44;74211.47;4977145;28;20108;-83
2022/06/25 09:08:07;;;;;;;4.35;1.30;;;;;;;-148.88;58.22;74203.34;4994922;28;20042;-82
2022/06/25 09:10:34;;;;;;;3.70;1.42;;;;;;;-148.88;57.81;74183.03;4994548;28;20033;-83
2022/06/25 09:13:03;;;;;;;4.88;1.52;;;;;;;-148.88;57.14;74172.88;4996668;28;20026;-82
2022/06/25 09:15:35;;;;;;;3.28;1.40;;;;;;;-148.88;56.76;74166.81;4994803;28;20056;-83
2022/06/25 09:18:12;;;;;;;3.95;1.27;;;;;;;-148.88;58.93;74154.63;4994573;28;20030;-84
2022/06/25 09:21:00;;;;;;;2.25;1.30;;;;;;;-148.88;57.36;74148.53;4994258;28;20481;-82
2022/06/25 09:23:26;;;;;;;2.60;1.30;;;;;;;-148.88;57.71;74099.78;4993609;28;20512;-84
2022/06/25 09:26:11;;;;;;;3.00;1.50;;;;;;;-148.88;55.93;74132.28;4995285;28;20516;-86
2022/06/25 09:28:39;;;;;;;4.70;1.38;;;;;;;-148.88;55.75;74122.13;4994072;28;20034;-82
2022/06/25 09:31:06;;;;;;;1.88;1.20;;;;;;;-148.88;53.85;74114.00;4994503;28;20053;-82
2022/06/25 09:33:34;;;;;;;2.55;1.20;;;;;;;-148.88;52.59;74114.00;4994529;28;20050;-84
2022/06/25 09:35:59;;;;;;;4.82;1.35;;;;;;;-148.88;50.84;74091.69;4994518;28;20033;-82
2022/06/25 09:38:25;;;;;;;2.58;1.45;;;;;;;-148.88;51.40;74073.41;4994630;28;20026;-82
2022/06/25 09:40:57;;;;;;;3.80;1.40;;;;;;;-148.88;51.80;74063.25;4976941;28;20511;-82
2022/06/25 09:43:25;;;;;;;3.30;1.38;;;;;;;-148.88;52.06;74079.50;4977636;28;20030;-83
2022/06/25 09:45:56;;;;;;;3.42;1.17;;;;;;;-148.88;52.43;74038.88;4993813;28;20026;-83
2022/06/25 09:48:26;;;;;;;3.45;1.15;;;;;;;-148.88;53.16;74010.47;4993880;28;20022;-84
2022/06/25 09:51:10;;;;;;;3.78;1.40;;;;;;;-148.88;49.44;74014.53;4976565;28;20026;-84
2022/06/25 09:53:54;;;;;;;3.22;1.30;;;;;;;-148.88;52.92;73965.78;4976557;28;20126;-83
2022/06/25 09:56:21;;;;;;;2.78;1.20;;;;;;;-148.88;50.82;73963.75;4993540;28;20029;-82
2022/06/25 09:58:47;;;;;;;4.88;1.73;;;;;;;-148.88;50.28;73967.81;4993630;28;20026;-82
2022/06/25 10:01:17;;;;;;;4.55;1.35;;;;;;;-148.88;49.54;73935.34;4993250;28;20057;-83
2022/06/25 10:03:45;;;;;;;3.15;1.38;;;;;;;-148.88;49.32;73913.00;4975975;28;20583;-84
2022/06/25 10:06:19;;;;;;;3.85;1.50;;;;;;;-148.88;48.07;73975.94;4994006;28;20026;-83
2022/06/25 10:08:50;;;;;;;2.58;1.13;;;;;;;-148.88;48.29;73990.16;4976023;28;20040;-83
2022/06/25 10:11:21;;;;;;;2.67;1.23;;;;;;;-148.88;49.34;73933.31;4994023;28;20026;-81
2022/06/25 10:13:51;;;;;;;2.63;1.10;;;;;;;-148.88;48.74;73910.97;4993375;28;20050;-83
2022/06/25 10:16:20;;;;;;;3.65;1.55;;;;;;;-148.88;48.64;73921.13;4993687;28;20022;-83
2022/06/25 10:18:48;;;;;;;3.47;1.30;;;;;;;-148.88;47.59;73896.75;4993659;28;20084;-82
2022/06/25 10:21:13;;;;;;;3.08;1.38;;;;;;;-148.88;46.59;73915.03;4993798;28;20481;-82
2022/06/25 10:23:40;;;;;;;2.88;1.15;;;;;;;-148.88;46.48;73854.13;4995002;28;20103;-82
2022/06/25 10:26:07;;;;;;;3.17;1.30;;;;;;;-148.88;46.41;73850.06;4993836;28;20085;-82
2022/06/25 10:28:35;;;;;;;2.83;1.25;;;;;;;-148.88;45.26;73860.22;4993460;28;20022;-82
2022/06/25 10:31:04;;;;;;;2.17;1.13;;;;;;;-148.88;45.87;73876.47;4992093;28;20045;-82
2022/06/25 10:33:36;;;;;;;3.17;1.20;;;;;;;-148.88;45.57;73803.38;4993307;28;20030;-83
2022/06/25 10:36:05;;;;;;;3.08;1.40;;;;;;;-148.88;45.21;73783.06;4997094;28;20022;-80
2022/06/25 10:38:31;;;;;;;2.35;1.30;;;;;;;-148.88;45.78;73779.00;4997670;28;20033;-84
2022/06/25 10:42:58;;;;;;;3.67;1.45;;;;;;;-148.88;45.37;73710.00;4997023;28;20105;-84
2022/06/25 10:43:53;;;;;;;2.30;1.07;;;;;;;-148.88;42.44;73710.00;4996761;28;20022;-84
2022/06/25 10:46:19;;;;;;;3.72;1.45;;;;;;;-148.88;43.70;73685.63;4996765;28;20283;-84
2022/06/25 10:48:55;;;;;;;3.40;1.20;;;;;;;-148.88;43.64;73722.16;4997458;28;20481;-83
2022/06/25 10:51:31;;;;;;;2.47;1.20;;;;;;;-148.88;44.10;73661.25;4997180;28;20018;-84
2022/06/25 10:53:59;;;;;;;3.35;1.23;;;;;;;-148.88;43.31;73653.16;4979566;28;20473;-83
2022/06/25 10:56:25;;;;;;;3.75;1.10;;;;;;;-148.88;43.10;73620.66;4979416;28;20121;-85
2022/06/25 10:58:52;;;;;;;2.88;1.33;;;;;;;-148.88;43.31;73584.13;4996786;28;20030;-86
2022/06/25 11:01:25;;;;;;;3.78;1.20;;;;;;;-148.88;42.64;73539.47;4996704;28;20105;-85
2022/06/25 11:03:53;;;;;;;4.82;1.30;;;;;;;-148.88;40.88;73537.44;4996524;28;20370;-85
2022/06/25 11:06:29;;;;;;;2.53;0.95;;;;;;;-148.88;42.05;73578.03;4996748;28;20471;-85
2022/06/25 11:08:55;;;;;;;3.53;1.20;;;;;;;-148.88;43.21;73535.41;4996853;28;20110;-83
2022/06/25 11:11:31;;;;;;;3.80;1.00;;;;;;;-148.88;41.31;73511.03;4996520;28;20113;-85
2022/06/25 11:13:58;;;;;;;1.98;1.10;;;;;;;-148.88;44.57;73476.53;4996820;28;20496;-84
2022/06/25 11:16:24;;;;;;;1.90;1.13;;;;;;;-148.88;39.49;73482.63;4997131;28;20022;-84
2022/06/25 11:18:56;;;;;;;2.28;1.10;;;;;;;-148.88;39.56;73478.56;4996863;28;20034;-83
2022/06/25 11:21:30;;;;;;;3.70;1.23;;;;;;;-148.88;40.33;73547.56;4996394;28;20026;-84